createdAt,value
2019-02-15T00:00:40.821Z,29.33
2019-02-15T00:01:25.153Z,29.35
2019-02-15T00:02:01.429Z,29.37
2019-02-15T00:02:37.454Z,29.41
2019-02-15T00:03:13.639Z,29.41
2019-02-15T00:03:49.877Z,29.43
2019-02-15T00:04:25.938Z,29.46
2019-02-15T00:05:02.095Z,29.41
2019-02-15T00:05:38.262Z,29.52
2019-02-15T00:06:14.479Z,29.54
2019-02-15T00:06:50.519Z,29.50
2019-02-15T00:07:26.493Z,29.54
2019-02-15T00:08:02.483Z,29.54
2019-02-15T00:08:38.794Z,29.54
2019-02-15T00:09:15.069Z,29.58
2019-02-15T00:09:51.427Z,29.55
2019-02-15T00:10:27.571Z,29.57
2019-02-15T00:11:03.651Z,29.57
2019-02-15T00:11:39.701Z,29.68
2019-02-15T00:12:15.984Z,29.68
2019-02-15T00:12:52.092Z,29.71
2019-02-15T00:13:28.205Z,29.75
2019-02-15T00:14:04.336Z,29.78
2019-02-15T00:14:58.725Z,29.87
2019-02-15T00:15:34.656Z,29.87
2019-02-15T00:16:10.830Z,29.89
2019-02-15T00:16:47.062Z,29.89
2019-02-15T00:17:40.410Z,29.97
2019-02-15T00:18:33.509Z,30.01
2019-02-15T00:19:37.323Z,30.04
2019-02-15T00:20:21.954Z,30.06
2019-02-15T00:21:20.577Z,30.06
2019-02-15T00:21:56.504Z,30.06
2019-02-15T00:22:32.612Z,30.11
2019-02-15T00:23:08.641Z,30.08
2019-02-15T00:23:44.875Z,30.08
2019-02-15T00:24:21.084Z,30.11
2019-02-15T00:24:57.304Z,30.16
2019-02-15T00:25:33.334Z,30.16
2019-02-15T00:26:09.629Z,30.16
2019-02-15T00:26:45.783Z,30.22
2019-02-15T00:27:21.862Z,30.22
2019-02-15T00:27:57.954Z,30.25
2019-02-15T00:28:34.120Z,30.24
2019-02-15T00:29:10.200Z,30.30
2019-02-15T00:29:46.293Z,30.30
2019-02-15T00:30:22.400Z,30.25
2019-02-15T00:30:58.705Z,30.28
2019-02-15T00:31:35.014Z,30.27
2019-02-15T00:32:11.096Z,30.25
2019-02-15T00:32:47.345Z,30.25
2019-02-15T00:33:23.815Z,30.25
2019-02-15T00:33:59.789Z,30.15
2019-02-15T00:34:35.766Z,30.14
2019-02-15T00:35:12.118Z,30.21
2019-02-15T00:35:48.154Z,30.21
2019-02-15T00:36:24.138Z,30.21
2019-02-15T00:37:00.500Z,30.24
2019-02-15T00:37:36.707Z,30.21
2019-02-15T00:38:12.939Z,30.21
2019-02-15T00:38:49.260Z,30.10
2019-02-15T00:39:25.285Z,30.14
2019-02-15T00:40:01.367Z,30.14
2019-02-15T00:40:37.308Z,30.16
2019-02-15T00:41:13.366Z,30.16
2019-02-15T00:41:49.459Z,30.16
2019-02-15T00:42:25.549Z,30.16
2019-02-15T00:43:01.619Z,30.14
2019-02-15T00:43:39.411Z,30.14
2019-02-15T00:44:15.636Z,30.14
2019-02-15T00:44:51.747Z,30.17
2019-02-15T00:45:30.301Z,30.17
2019-02-15T00:46:28.237Z,30.16
2019-02-15T00:47:31.843Z,30.41
2019-02-15T00:48:12.416Z,30.41
2019-02-15T00:48:48.552Z,30.43
2019-02-15T00:49:37.978Z,30.40
2019-02-15T00:50:28.680Z,30.39
2019-02-15T00:51:26.295Z,30.39
2019-02-15T00:52:16.305Z,30.48
2019-02-15T00:53:11.162Z,30.48
2019-02-15T00:53:52.490Z,30.47
2019-02-15T00:54:33.619Z,30.49
2019-02-15T00:55:34.099Z,30.53
2019-02-15T00:56:23.294Z,30.53
2019-02-15T00:57:16.489Z,30.52
2019-02-15T00:58:06.279Z,30.52
2019-02-15T00:59:01.206Z,30.50
2019-02-15T00:59:58.847Z,30.52
2019-02-15T01:00:49.648Z,30.54
2019-02-15T01:01:41.633Z,30.63
2019-02-15T01:02:54.828Z,30.63
2019-02-15T01:03:49.342Z,30.67
2019-02-15T01:04:44.013Z,30.67
2019-02-15T01:05:53.879Z,30.67
2019-02-15T01:06:51.566Z,30.80
2019-02-15T01:07:52.286Z,30.80
2019-02-15T01:08:45.399Z,30.83
2019-02-15T01:09:46.380Z,30.96
2019-02-15T01:10:50.027Z,31.00
2019-02-15T01:11:32.357Z,31.00
2019-02-15T01:12:14.855Z,30.97
2019-02-15T01:13:04.524Z,30.97
2019-02-15T01:13:40.546Z,31.08
2019-02-15T01:14:16.703Z,31.14
2019-02-15T01:14:52.795Z,31.21
2019-02-15T01:15:29.009Z,31.27
2019-02-15T01:16:04.979Z,31.38
2019-02-15T01:16:41.052Z,31.49
2019-02-15T01:17:17.245Z,31.60
2019-02-15T01:17:53.607Z,31.67
2019-02-15T01:18:29.757Z,31.78
2019-02-15T01:19:05.725Z,31.84
2019-02-15T01:19:41.768Z,31.93
2019-02-15T01:20:17.798Z,31.98
2019-02-15T01:20:53.978Z,32.02
2019-02-15T01:21:30.066Z,32.02
2019-02-15T01:22:06.253Z,31.97
2019-02-15T01:22:42.411Z,31.97
2019-02-15T01:23:18.586Z,31.98
2019-02-15T01:23:54.663Z,32.06
2019-02-15T01:24:30.861Z,32.17
2019-02-15T01:25:07.075Z,32.22
2019-02-15T01:43:53.774Z,33.37
2019-02-15T01:44:37.584Z,33.31
2019-02-15T01:45:20.730Z,33.16
2019-02-15T01:46:02.019Z,33.10
2019-02-15T01:46:45.549Z,33.06
2019-02-15T01:47:34.981Z,33.04
2019-02-15T01:48:11.107Z,33.01
2019-02-15T01:48:47.177Z,33.00
2019-02-15T01:49:23.404Z,32.96
2019-02-15T01:49:59.680Z,33.00
2019-02-15T01:50:35.878Z,33.03
2019-02-15T01:51:12.029Z,33.10
2019-02-15T01:51:48.307Z,33.16
2019-02-15T01:52:24.276Z,33.25
2019-02-15T01:53:00.167Z,33.36
2019-02-15T01:53:36.179Z,33.47
2019-02-15T01:54:12.232Z,33.54
2019-02-15T01:54:48.297Z,33.64
2019-02-15T01:55:24.651Z,33.75
2019-02-15T01:56:00.756Z,33.86
2019-02-15T01:56:36.804Z,33.91
2019-02-15T01:57:13.024Z,33.97
2019-02-15T01:57:49.019Z,34.01
2019-02-15T01:58:25.169Z,34.02
2019-02-15T01:59:01.456Z,34.09
2019-02-15T01:59:37.607Z,34.07
2019-02-15T02:00:16.253Z,34.04
2019-02-15T02:00:52.382Z,33.99
2019-02-15T02:01:29.524Z,33.99
2019-02-15T02:02:05.710Z,34.06
2019-02-15T02:02:41.803Z,34.09
2019-02-15T02:03:18.089Z,34.05
2019-02-15T02:03:54.025Z,34.08
2019-02-15T02:04:29.968Z,34.15
2019-02-15T02:05:06.094Z,34.18
2019-02-15T02:05:42.399Z,34.20
2019-02-15T02:06:18.542Z,34.15
2019-02-15T02:06:54.743Z,34.09
2019-02-15T02:07:30.882Z,34.05
2019-02-15T02:08:08.752Z,34.03
2019-02-15T02:08:44.843Z,34.01
2019-02-15T02:09:21.014Z,34.00
2019-02-15T02:09:57.126Z,34.04
2019-02-15T02:10:33.567Z,34.13
2019-02-15T02:11:09.604Z,34.20
2019-02-15T02:11:45.794Z,34.26
2019-02-15T02:12:21.788Z,34.34
2019-02-15T02:12:57.871Z,34.38
2019-02-15T02:13:33.998Z,34.44
2019-02-15T02:14:10.123Z,34.47
2019-02-15T02:14:46.278Z,34.50
2019-02-15T02:15:22.238Z,34.53
2019-02-15T02:15:58.385Z,34.55
2019-02-15T02:16:34.723Z,34.60
2019-02-15T02:17:10.854Z,34.63
2019-02-15T02:17:46.993Z,34.65
2019-02-15T02:18:23.147Z,34.70
2019-02-15T02:18:59.257Z,34.74
2019-02-15T02:19:35.488Z,34.75
2019-02-15T02:20:12.584Z,34.79
2019-02-15T02:20:48.746Z,34.80
2019-02-15T02:21:24.783Z,34.78
2019-02-15T02:22:00.957Z,34.70
2019-02-15T02:22:37.229Z,34.70
2019-02-15T02:23:13.278Z,34.74
2019-02-15T02:23:49.331Z,34.76
2019-02-15T02:24:25.364Z,34.80
2019-02-15T02:25:01.578Z,34.84
2019-02-15T02:25:37.718Z,34.85
2019-02-15T02:26:14.043Z,34.87
2019-02-15T02:26:50.067Z,34.91
2019-02-15T02:27:26.420Z,34.93
2019-02-15T02:28:02.678Z,34.98
2019-02-15T02:28:38.856Z,35.02
2019-02-15T02:29:14.910Z,35.06
2019-02-15T02:29:50.930Z,35.08
2019-02-15T02:30:27.135Z,35.11
2019-02-15T02:31:03.419Z,35.14
2019-02-15T02:31:39.577Z,35.15
2019-02-15T02:32:15.739Z,35.11
2019-02-15T02:32:51.988Z,35.00
2019-02-15T02:33:28.183Z,34.94
2019-02-15T02:34:04.431Z,34.92
2019-02-15T02:34:40.984Z,34.91
2019-02-15T02:35:18.304Z,34.94
2019-02-15T02:35:54.323Z,34.94
2019-02-15T02:36:54.297Z,34.96
2019-02-15T02:37:30.500Z,34.98
2019-02-15T02:38:06.800Z,35.09
2019-02-15T02:38:42.920Z,35.15
2019-02-15T02:39:19.085Z,35.18
2019-02-15T02:39:55.220Z,35.21
2019-02-15T02:40:31.459Z,35.24
2019-02-15T02:41:07.725Z,35.27
2019-02-15T02:41:44.081Z,35.29
2019-02-15T02:42:20.152Z,35.35
2019-02-15T02:42:56.179Z,35.40
2019-02-15T02:43:32.190Z,35.42
2019-02-15T02:44:08.208Z,35.44
2019-02-15T02:44:44.598Z,35.48
2019-02-15T02:45:20.662Z,35.48
2019-02-15T02:45:56.826Z,35.49
2019-02-15T02:46:33.083Z,35.52
2019-02-15T02:47:09.138Z,35.55
2019-02-15T02:47:45.439Z,35.52
2019-02-15T02:48:21.456Z,35.57
2019-02-15T02:48:57.443Z,35.57
2019-02-15T02:49:33.468Z,35.54
2019-02-15T02:50:09.474Z,35.54
2019-02-15T02:50:45.662Z,35.50
2019-02-15T02:51:21.669Z,35.51
2019-02-15T02:51:57.960Z,35.53
2019-02-15T02:52:34.240Z,35.55
2019-02-15T02:53:10.444Z,35.55
2019-02-15T02:53:46.418Z,35.54
2019-02-15T02:54:22.593Z,35.59
2019-02-15T02:54:58.772Z,35.58
2019-02-15T02:55:35.048Z,35.64
2019-02-15T02:56:11.079Z,35.64
2019-02-15T02:56:47.104Z,35.62
2019-02-15T02:57:23.147Z,35.62
2019-02-15T02:57:59.140Z,35.59
2019-02-15T02:58:35.244Z,35.55
2019-02-15T02:59:11.387Z,35.54
2019-02-15T02:59:47.534Z,35.57
2019-02-15T03:00:32.982Z,35.55
2019-02-15T03:01:01.670Z,35.51
2019-02-15T03:01:37.956Z,35.51
2019-02-15T03:02:14.036Z,35.49
2019-02-15T03:02:50.143Z,35.49
2019-02-15T03:03:26.324Z,35.50
2019-02-15T03:04:02.378Z,35.50
2019-02-15T03:04:38.382Z,35.49
2019-02-15T03:05:14.522Z,35.51
2019-02-15T03:05:50.626Z,35.46
2019-02-15T03:06:26.645Z,35.40
2019-02-15T03:07:02.961Z,35.40
2019-02-15T03:07:39.149Z,35.40
2019-02-15T03:08:15.317Z,35.43
2019-02-15T03:08:51.481Z,35.44
2019-02-15T03:09:27.408Z,35.48
2019-02-15T03:10:03.470Z,35.42
2019-02-15T03:10:39.605Z,35.45
2019-02-15T03:11:15.905Z,35.50
2019-02-15T03:11:51.928Z,35.56
2019-02-15T03:12:28.118Z,35.55
2019-02-15T03:13:04.165Z,35.62
2019-02-15T03:13:40.383Z,35.60
2019-02-15T03:14:16.628Z,35.59
2019-02-15T03:14:52.750Z,35.58
2019-02-15T03:15:28.828Z,35.56
2019-02-15T03:16:05.134Z,35.56
2019-02-15T03:16:41.374Z,35.58
2019-02-15T03:17:17.540Z,35.61
2019-02-15T03:17:53.652Z,35.59
2019-02-15T03:18:29.754Z,35.53
2019-02-15T03:19:05.928Z,35.52
2019-02-15T03:19:42.096Z,35.47
2019-02-15T03:20:18.382Z,35.48
2019-02-15T03:20:54.603Z,35.48
2019-02-15T03:21:30.722Z,35.46
2019-02-15T03:22:06.785Z,35.46
2019-02-15T03:22:43.015Z,35.46
2019-02-15T03:23:19.105Z,35.48
2019-02-15T03:23:55.266Z,35.50
2019-02-15T03:24:31.580Z,35.52
2019-02-15T03:25:07.728Z,35.55
2019-02-15T03:25:43.829Z,35.55
2019-02-15T03:26:19.993Z,35.58
2019-02-15T03:26:56.085Z,35.56
2019-02-15T03:27:32.311Z,35.58
2019-02-15T03:28:08.492Z,35.64
2019-02-15T03:28:44.684Z,35.67
2019-02-15T03:29:20.667Z,35.66
2019-02-15T03:29:56.839Z,35.66
2019-02-15T03:30:32.925Z,35.67
2019-02-15T03:31:09.128Z,35.65
2019-02-15T03:31:45.219Z,35.66
2019-02-15T03:32:21.334Z,35.66
2019-02-15T03:32:57.573Z,35.63
2019-02-15T03:33:33.811Z,35.66
2019-02-15T03:34:10.134Z,35.71
2019-02-15T03:34:46.182Z,35.74
2019-02-15T03:35:22.417Z,35.76
2019-02-15T03:36:03.136Z,35.74
2019-02-15T03:37:06.694Z,35.77
2019-02-15T03:38:02.314Z,35.78
2019-02-15T03:39:02.852Z,35.84
2019-02-15T03:39:44.953Z,35.83
2019-02-15T03:40:33.922Z,35.85
2019-02-15T03:41:26.514Z,35.82
2019-02-15T03:42:02.731Z,35.70
2019-02-15T03:42:38.706Z,35.57
2019-02-15T03:43:14.838Z,35.55
2019-02-15T03:43:50.925Z,35.49
2019-02-15T03:44:27.003Z,35.48
2019-02-15T03:45:03.166Z,35.49
2019-02-15T03:45:39.580Z,35.47
2019-02-15T03:46:15.669Z,35.55
2019-02-15T03:46:52.127Z,35.59
2019-02-15T03:47:28.808Z,35.63
2019-02-15T03:48:05.044Z,35.63
2019-02-15T03:48:41.123Z,35.59
2019-02-15T03:49:17.160Z,35.63
2019-02-15T03:49:53.169Z,35.66
2019-02-15T03:50:29.275Z,35.70
2019-02-15T03:51:05.461Z,35.73
2019-02-15T03:51:41.526Z,35.74
2019-02-15T03:52:17.576Z,35.79
2019-02-15T03:52:53.717Z,35.80
2019-02-15T03:53:29.895Z,35.82
2019-02-15T03:54:06.150Z,35.86
2019-02-15T03:54:42.384Z,35.86
2019-02-15T03:55:18.539Z,35.86
2019-02-15T03:55:54.833Z,35.89
2019-02-15T03:56:30.975Z,35.89
2019-02-15T03:57:07.218Z,35.87
2019-02-15T03:57:43.310Z,35.91
2019-02-15T03:58:19.436Z,35.97
2019-02-15T03:58:55.543Z,36.02
2019-02-15T03:59:31.703Z,36.07
2019-02-15T04:00:09.116Z,36.09
2019-02-15T04:00:45.175Z,36.11
2019-02-15T04:01:21.149Z,36.14
2019-02-15T04:01:57.457Z,36.16
2019-02-15T04:02:33.747Z,36.17
2019-02-15T04:03:09.869Z,36.18
2019-02-15T04:03:46.227Z,36.16
2019-02-15T04:04:22.319Z,36.15
2019-02-15T04:04:58.348Z,36.07
2019-02-15T04:05:34.386Z,36.08
2019-02-15T04:06:10.673Z,36.09
2019-02-15T04:06:46.773Z,36.07
2019-02-15T04:07:22.871Z,36.09
2019-02-15T04:07:59.124Z,36.10
2019-02-15T04:08:35.269Z,36.14
2019-02-15T04:09:11.616Z,36.15
2019-02-15T04:09:47.917Z,36.19
2019-02-15T04:10:24.135Z,36.26
2019-02-15T04:11:00.322Z,36.35
2019-02-15T04:11:36.566Z,36.42
2019-02-15T04:12:12.877Z,36.38
2019-02-15T04:12:48.925Z,36.35
2019-02-15T04:13:24.989Z,36.32
2019-02-15T04:14:01.117Z,36.25
2019-02-15T04:14:37.200Z,36.17
2019-02-15T04:15:13.248Z,36.10
2019-02-15T04:15:49.260Z,36.04
2019-02-15T04:16:25.329Z,35.96
2019-02-15T04:17:01.394Z,35.92
2019-02-15T04:17:37.596Z,35.89
2019-02-15T04:18:13.834Z,35.84
2019-02-15T04:18:49.955Z,35.84
2019-02-15T04:19:26.314Z,35.86
2019-02-15T04:20:02.268Z,35.89
2019-02-15T04:20:38.456Z,35.94
2019-02-15T04:21:14.506Z,35.96
2019-02-15T04:21:50.790Z,35.96
2019-02-15T04:22:27.012Z,35.97
2019-02-15T04:23:03.111Z,35.98
2019-02-15T04:23:39.304Z,35.99
2019-02-15T04:24:15.252Z,35.99
2019-02-15T04:24:51.378Z,35.98
2019-02-15T04:25:27.663Z,36.04
2019-02-15T04:26:03.897Z,36.04
2019-02-15T04:26:40.049Z,36.09
2019-02-15T04:27:16.462Z,36.14
2019-02-15T04:27:52.523Z,36.12
2019-02-15T04:28:28.863Z,36.14
2019-02-15T04:29:05.005Z,36.17
2019-02-15T04:29:41.185Z,36.20
2019-02-15T04:30:17.344Z,36.22
2019-02-15T04:30:53.619Z,36.16
2019-02-15T04:31:29.753Z,36.19
2019-02-15T04:32:05.990Z,36.22
2019-02-15T04:32:42.083Z,36.22
2019-02-15T04:33:18.158Z,36.22
2019-02-15T04:33:54.128Z,36.20
2019-02-15T04:34:30.329Z,36.18
2019-02-15T04:35:06.502Z,36.16
2019-02-15T04:35:42.591Z,36.13
2019-02-15T04:36:18.638Z,36.12
2019-02-15T04:36:54.865Z,36.09
2019-02-15T04:37:30.873Z,36.03
2019-02-15T04:38:06.942Z,35.98
2019-02-15T04:38:43.048Z,35.96
2019-02-15T04:39:19.095Z,35.92
2019-02-15T04:39:55.240Z,35.88
2019-02-15T04:40:31.371Z,35.86
2019-02-15T04:41:07.542Z,35.84
2019-02-15T04:41:43.761Z,35.81
2019-02-15T04:42:19.864Z,35.76
2019-02-15T04:42:56.020Z,35.76
2019-02-15T04:43:32.027Z,35.73
2019-02-15T04:44:08.077Z,35.73
2019-02-15T04:44:44.224Z,35.69
2019-02-15T04:45:20.504Z,35.66
2019-02-15T04:45:56.657Z,35.68
2019-02-15T04:46:32.899Z,35.66
2019-02-15T04:47:09.114Z,35.65
2019-02-15T04:47:45.238Z,35.65
2019-02-15T04:48:21.528Z,35.66
2019-02-15T04:48:57.741Z,35.67
2019-02-15T04:49:33.863Z,35.68
2019-02-15T04:50:10.893Z,35.70
2019-02-15T04:50:47.022Z,35.70
2019-02-15T04:51:23.254Z,35.69
2019-02-15T04:51:59.454Z,35.69
2019-02-15T04:52:35.842Z,35.70
2019-02-15T04:53:12.185Z,35.69
2019-02-15T04:53:48.391Z,35.65
2019-02-15T04:54:24.356Z,35.65
2019-02-15T04:55:00.371Z,35.65
2019-02-15T04:55:36.623Z,35.64
2019-02-15T04:56:12.888Z,35.64
2019-02-15T04:56:49.030Z,35.64
2019-02-15T04:57:25.077Z,35.66
2019-02-15T04:58:01.316Z,35.67
2019-02-15T04:58:37.501Z,35.70
2019-02-15T04:59:13.582Z,35.72
2019-02-15T04:59:49.798Z,35.74
2019-02-15T05:00:26.006Z,35.77
2019-02-15T05:01:02.269Z,35.81
2019-02-15T05:01:38.523Z,35.84
2019-02-15T05:02:14.649Z,35.90
2019-02-15T05:02:50.964Z,35.96
2019-02-15T05:03:27.215Z,36.00
2019-02-15T05:04:03.484Z,36.01
2019-02-15T05:04:39.605Z,36.06
2019-02-15T05:05:15.868Z,36.07
2019-02-15T05:05:52.138Z,36.13
2019-02-15T05:06:28.241Z,36.18
2019-02-15T05:07:04.280Z,36.18
2019-02-15T05:07:40.439Z,36.19
2019-02-15T05:08:16.543Z,36.23
2019-02-15T05:08:52.634Z,36.26
2019-02-15T05:09:28.902Z,36.30
2019-02-15T05:10:05.181Z,36.30
2019-02-15T05:10:41.314Z,36.34
2019-02-15T05:11:17.421Z,36.39
2019-02-15T05:11:53.517Z,36.40
2019-02-15T05:12:29.630Z,36.44
2019-02-15T05:13:05.757Z,36.44
2019-02-15T05:13:41.962Z,36.44
2019-02-15T05:14:18.081Z,36.48
2019-02-15T05:14:54.311Z,36.52
2019-02-15T05:15:30.369Z,36.54
2019-02-15T05:16:06.476Z,36.59
2019-02-15T05:16:42.434Z,36.57
2019-02-15T05:17:18.404Z,36.56
2019-02-15T05:17:54.673Z,36.55
2019-02-15T05:18:30.910Z,36.54
2019-02-15T05:19:06.955Z,36.55
2019-02-15T05:19:42.863Z,36.58
2019-02-15T05:20:18.995Z,36.59
2019-02-15T05:20:55.170Z,36.61
2019-02-15T05:21:31.369Z,36.64
2019-02-15T05:22:07.789Z,36.66
2019-02-15T05:22:43.733Z,36.67
2019-02-15T05:23:19.949Z,36.69
2019-02-15T05:23:56.084Z,36.71
2019-02-15T05:24:32.192Z,36.72
2019-02-15T05:25:08.396Z,36.67
2019-02-15T05:25:44.454Z,36.65
2019-02-15T05:26:20.635Z,36.70
2019-02-15T05:26:56.671Z,36.69
2019-02-15T05:27:32.750Z,36.69
2019-02-15T05:28:09.087Z,36.67
2019-02-15T05:28:45.259Z,36.70
2019-02-15T05:29:21.434Z,36.74
2019-02-15T05:29:57.561Z,36.78
2019-02-15T05:30:33.623Z,36.82
2019-02-15T05:31:09.629Z,36.86
2019-02-15T05:31:45.929Z,36.90
2019-02-15T05:32:21.995Z,36.94
2019-02-15T05:32:58.113Z,36.97
2019-02-15T05:33:35.696Z,36.96
2019-02-15T05:34:11.790Z,36.95
2019-02-15T05:34:47.942Z,36.93
2019-02-15T05:35:24.185Z,36.90
2019-02-15T05:36:00.333Z,36.90
2019-02-15T05:36:36.547Z,36.87
2019-02-15T05:37:12.702Z,36.88
2019-02-15T05:37:48.773Z,36.87
2019-02-15T05:38:24.867Z,36.87
2019-02-15T05:39:00.935Z,36.86
2019-02-15T05:39:37.154Z,36.89
2019-02-15T05:40:13.409Z,36.91
2019-02-15T05:40:49.489Z,36.91
2019-02-15T05:41:25.550Z,36.96
2019-02-15T05:42:01.701Z,36.96
2019-02-15T05:42:37.863Z,36.98
2019-02-15T05:43:14.060Z,37.03
2019-02-15T05:43:50.196Z,37.08
2019-02-15T05:44:26.330Z,37.06
2019-02-15T05:45:04.168Z,37.05
2019-02-15T05:45:40.232Z,37.01
2019-02-15T05:46:16.173Z,36.98
2019-02-15T05:46:52.193Z,36.94
2019-02-15T05:47:28.529Z,36.92
2019-02-15T05:48:04.608Z,36.90
2019-02-15T05:48:40.894Z,36.91
2019-02-15T05:49:17.045Z,36.87
2019-02-15T05:49:53.215Z,36.84
2019-02-15T05:50:29.383Z,36.80
2019-02-15T05:51:05.515Z,36.78
2019-02-15T05:51:41.656Z,36.73
2019-02-15T05:52:17.825Z,36.72
2019-02-15T05:52:54.124Z,36.71
2019-02-15T05:53:30.251Z,36.70
2019-02-15T05:54:06.294Z,36.69
2019-02-15T05:54:42.606Z,36.67
2019-02-15T05:55:18.876Z,36.62
2019-02-15T05:55:55.160Z,36.63
2019-02-15T05:56:31.413Z,36.63
2019-02-15T05:57:09.550Z,36.65
2019-02-15T05:57:45.379Z,36.64
2019-02-15T05:58:21.644Z,36.64
2019-02-15T05:58:57.723Z,36.69
2019-02-15T05:59:33.932Z,36.69
2019-02-15T06:00:10.746Z,36.67
2019-02-15T06:00:47.051Z,36.66
2019-02-15T06:01:24.618Z,36.68
2019-02-15T06:02:00.745Z,36.60
2019-02-15T06:02:37.011Z,36.60
2019-02-15T06:03:13.802Z,36.59
2019-02-15T06:03:50.061Z,36.59
2019-02-15T06:04:26.147Z,36.58
2019-02-15T06:05:02.224Z,36.57
2019-02-15T06:05:38.284Z,36.55
2019-02-15T06:06:14.280Z,36.56
2019-02-15T06:06:50.362Z,36.51
2019-02-15T06:07:26.468Z,36.53
2019-02-15T06:08:02.501Z,36.49
2019-02-15T06:08:38.582Z,36.44
2019-02-15T06:09:14.742Z,36.42
2019-02-15T06:09:50.928Z,36.45
2019-02-15T06:10:27.086Z,36.47
2019-02-15T06:11:07.564Z,36.50
2019-02-15T06:11:41.229Z,36.52
2019-02-15T06:12:17.183Z,36.53
2019-02-15T06:12:53.488Z,36.56
2019-02-15T06:13:29.636Z,36.54
2019-02-15T06:14:05.669Z,36.54
2019-02-15T06:14:41.790Z,36.52
2019-02-15T06:15:17.996Z,36.52
2019-02-15T06:15:54.051Z,36.48
2019-02-15T06:16:30.368Z,36.43
2019-02-15T06:17:06.574Z,36.37
2019-02-15T06:17:42.710Z,36.37
2019-02-15T06:18:18.993Z,36.38
2019-02-15T06:18:55.131Z,36.38
2019-02-15T06:19:31.399Z,36.36
2019-02-15T06:20:07.962Z,36.36
2019-02-15T06:20:44.113Z,36.33
2019-02-15T06:21:20.362Z,36.32
2019-02-15T06:21:56.543Z,36.32
2019-02-15T06:22:32.726Z,36.29
2019-02-15T06:23:08.909Z,36.31
2019-02-15T06:23:45.304Z,36.33
2019-02-15T06:24:21.457Z,36.33
2019-02-15T06:24:57.545Z,36.20
2019-02-15T06:25:33.789Z,36.22
2019-02-15T06:26:09.928Z,36.18
2019-02-15T06:26:46.114Z,36.18
2019-02-15T06:27:22.138Z,36.17
2019-02-15T06:27:58.105Z,36.16
2019-02-15T06:28:34.396Z,36.14
2019-02-15T06:29:10.540Z,36.15
2019-02-15T06:29:46.788Z,36.14
2019-02-15T06:30:22.968Z,36.14
2019-02-15T06:30:59.014Z,36.16
2019-02-15T06:31:35.129Z,36.17
2019-02-15T06:32:11.218Z,36.20
2019-02-15T06:32:47.341Z,36.22
2019-02-15T06:33:23.646Z,36.19
2019-02-15T06:33:59.874Z,36.19
2019-02-15T06:34:36.264Z,36.19
2019-02-15T06:35:12.330Z,36.19
2019-02-15T06:35:48.421Z,36.23
2019-02-15T06:36:26.288Z,36.23
2019-02-15T06:37:02.400Z,36.29
2019-02-15T06:37:38.745Z,36.30
2019-02-15T06:38:14.988Z,36.27
2019-02-15T06:38:51.091Z,36.23
2019-02-15T06:39:27.400Z,36.18
2019-02-15T06:40:03.523Z,36.15
2019-02-15T06:40:39.632Z,36.10
2019-02-15T06:41:15.693Z,36.10
2019-02-15T06:41:51.965Z,36.09
2019-02-15T06:42:28.000Z,36.03
2019-02-15T06:43:04.006Z,36.01
2019-02-15T06:43:39.993Z,36.01
2019-02-15T06:44:16.419Z,36.02
2019-02-15T06:44:52.456Z,36.04
2019-02-15T06:45:28.437Z,36.01
2019-02-15T06:46:04.648Z,36.05
2019-02-15T06:46:40.692Z,36.00
2019-02-15T06:47:16.831Z,35.99
2019-02-15T06:47:52.834Z,36.02
2019-02-15T06:48:29.045Z,36.02
2019-02-15T06:49:05.160Z,35.98
2019-02-15T06:49:41.357Z,35.99
2019-02-15T06:50:17.402Z,35.99
2019-02-15T06:50:53.569Z,36.06
2019-02-15T06:51:29.775Z,36.05
2019-02-15T06:52:05.767Z,36.06
2019-02-15T06:52:42.026Z,36.08
2019-02-15T06:53:18.114Z,36.04
2019-02-15T06:53:54.099Z,36.00
2019-02-15T06:54:30.142Z,36.04
2019-02-15T06:55:06.238Z,36.10
2019-02-15T06:55:42.520Z,36.17
2019-02-15T06:56:18.749Z,36.25
2019-02-15T06:56:54.774Z,36.34
2019-02-15T06:57:30.921Z,36.43
2019-02-15T06:58:07.028Z,36.49
2019-02-15T06:58:58.571Z,36.52
2019-02-15T06:59:45.743Z,36.61
2019-02-15T07:00:48.212Z,36.70
2019-02-15T07:01:31.810Z,36.75
2019-02-15T07:02:27.085Z,36.73
2019-02-15T07:03:27.698Z,36.73
2019-02-15T07:04:08.041Z,36.75
2019-02-15T07:04:58.509Z,36.82
2019-02-15T07:05:34.837Z,36.82
2019-02-15T07:06:10.799Z,36.83
2019-02-15T07:06:47.062Z,36.78
2019-02-15T07:07:23.253Z,36.81
2019-02-15T07:07:59.433Z,36.83
2019-02-15T07:08:35.495Z,36.83
2019-02-15T07:09:11.653Z,36.83
2019-02-15T07:09:47.924Z,36.79
2019-02-15T07:10:24.113Z,36.79
2019-02-15T07:11:00.346Z,36.78
2019-02-15T07:11:36.463Z,36.77
2019-02-15T07:12:12.596Z,36.78
2019-02-15T07:12:49.009Z,36.79
2019-02-15T07:13:25.213Z,36.83
2019-02-15T07:14:01.389Z,36.85
2019-02-15T07:14:37.553Z,36.88
2019-02-15T07:15:13.766Z,36.89
2019-02-15T07:15:50.088Z,36.90
2019-02-15T07:16:26.088Z,36.90
2019-02-15T07:17:02.285Z,36.92
2019-02-15T07:17:38.550Z,36.89
2019-02-15T07:18:14.555Z,36.89
2019-02-15T07:18:50.711Z,36.90
2019-02-15T07:19:26.634Z,36.90
2019-02-15T07:20:02.721Z,36.87
2019-02-15T07:20:38.791Z,36.89
2019-02-15T07:21:15.029Z,36.89
2019-02-15T07:21:51.092Z,36.88
2019-02-15T07:22:27.235Z,36.86
2019-02-15T07:23:03.347Z,36.87
2019-02-15T07:23:39.502Z,36.83
2019-02-15T07:24:15.703Z,36.79
2019-02-15T07:24:51.911Z,36.75
2019-02-15T07:25:28.196Z,36.74
2019-02-15T07:26:04.469Z,36.71
2019-02-15T07:26:40.586Z,36.68
2019-02-15T07:27:16.597Z,36.61
2019-02-15T07:27:52.792Z,36.57
2019-02-15T07:28:28.987Z,36.55
2019-02-15T07:29:05.059Z,36.54
2019-02-15T07:29:41.292Z,36.47
2019-02-15T07:30:17.272Z,36.39
2019-02-15T07:30:53.471Z,36.36
2019-02-15T07:31:29.540Z,36.37
2019-02-15T07:32:05.692Z,36.39
2019-02-15T07:32:41.600Z,36.36
2019-02-15T07:33:17.676Z,36.39
2019-02-15T07:33:53.879Z,36.43
2019-02-15T07:34:29.909Z,36.45
2019-02-15T07:35:06.065Z,36.50
2019-02-15T07:35:42.330Z,36.54
2019-02-15T07:36:18.363Z,36.59
2019-02-15T07:36:54.499Z,36.64
2019-02-15T07:37:30.657Z,36.63
2019-02-15T07:38:06.940Z,36.66
2019-02-15T07:38:43.037Z,36.63
2019-02-15T07:39:19.244Z,36.67
2019-02-15T07:39:55.330Z,36.65
2019-02-15T07:40:31.424Z,36.67
2019-02-15T07:41:07.442Z,36.73
2019-02-15T07:41:43.560Z,36.77
2019-02-15T07:42:21.264Z,36.74
2019-02-15T07:42:57.379Z,36.74
2019-02-15T07:43:33.695Z,36.73
2019-02-15T07:44:09.839Z,36.72
2019-02-15T07:44:45.981Z,36.68
2019-02-15T07:45:22.727Z,36.72
2019-02-15T07:45:59.055Z,36.72
2019-02-15T07:46:35.154Z,36.73
2019-02-15T07:47:11.247Z,36.71
2019-02-15T07:47:47.352Z,36.69
2019-02-15T07:48:23.618Z,36.63
2019-02-15T07:48:59.818Z,36.60
2019-02-15T07:49:36.113Z,36.56
2019-02-15T07:50:13.941Z,36.52
2019-02-15T07:50:50.322Z,36.51
2019-02-15T07:51:26.599Z,36.53
2019-02-15T07:52:02.670Z,36.56
2019-02-15T07:52:38.734Z,36.57
2019-02-15T07:53:14.958Z,36.57
2019-02-15T07:53:51.070Z,36.53
2019-02-15T07:54:27.107Z,36.53
2019-02-15T07:55:03.117Z,36.54
2019-02-15T07:55:39.404Z,36.57
2019-02-15T07:56:15.649Z,36.59
2019-02-15T07:56:51.914Z,36.60
2019-02-15T07:57:28.227Z,36.60
2019-02-15T07:58:04.342Z,36.58
2019-02-15T07:58:40.636Z,36.50
2019-02-15T07:59:16.664Z,36.43
2019-02-15T07:59:52.786Z,36.37
2019-02-15T08:00:28.853Z,36.30
2019-02-15T08:01:04.805Z,36.22
2019-02-15T08:01:40.826Z,36.12
2019-02-15T08:02:16.880Z,36.07
2019-02-15T08:02:52.931Z,36.04
2019-02-15T08:03:29.044Z,35.98
2019-02-15T08:04:06.853Z,35.93
2019-02-15T08:04:43.158Z,35.88
2019-02-15T08:05:19.234Z,35.78
2019-02-15T08:05:55.398Z,35.77
2019-02-15T08:06:31.499Z,35.77
2019-02-15T08:07:07.538Z,35.74
2019-02-15T08:07:43.629Z,35.73
2019-02-15T08:08:19.813Z,35.72
2019-02-15T08:08:56.024Z,35.70
2019-02-15T08:09:32.261Z,35.69
2019-02-15T08:10:08.866Z,35.69
2019-02-15T08:10:45.003Z,35.69
2019-02-15T08:11:21.132Z,35.69
2019-02-15T08:11:57.161Z,35.68
2019-02-15T08:12:33.272Z,35.66
2019-02-15T08:13:09.311Z,35.66
2019-02-15T08:13:45.373Z,35.65
2019-02-15T08:14:21.492Z,35.62
2019-02-15T08:14:57.616Z,35.62
2019-02-15T08:15:36.342Z,35.58
2019-02-15T08:16:11.698Z,35.58
2019-02-15T08:16:47.853Z,35.58
2019-02-15T08:17:24.108Z,35.56
2019-02-15T08:18:00.228Z,35.53
2019-02-15T08:18:36.288Z,35.53
2019-02-15T08:19:12.488Z,35.53
2019-02-15T08:19:48.646Z,35.55
2019-02-15T08:20:24.763Z,35.57